createdAt,value
2022-11-05T06:15:49.752Z,100.00
2022-11-05T06:25:49.571Z,100.00
2022-11-05T06:35:49.576Z,100.00
2022-11-05T06:45:49.670Z,100.00
2022-11-05T06:55:49.674Z,100.00
2022-11-05T07:05:49.742Z,100.00
2022-11-05T07:15:49.654Z,100.00
2022-11-05T07:25:49.903Z,100.00
2022-11-05T07:35:49.717Z,100.00
2022-11-05T07:45:49.670Z,100.00
2022-11-05T07:55:49.810Z,100.00
2022-11-05T08:05:49.938Z,100.00
2022-11-05T08:15:49.825Z,100.00
2022-11-05T08:25:49.815Z,100.00
2022-11-05T08:35:49.767Z,100.00
2022-11-05T08:45:49.916Z,100.00
2022-11-05T08:55:50.227Z,100.00
2022-11-05T09:05:50.177Z,100.00
2022-11-05T09:15:50.249Z,100.00
2022-11-05T09:25:50.220Z,100.00
2022-11-05T09:35:50.307Z,100.00
2022-11-05T09:45:50.194Z,100.00
2022-11-05T09:55:50.188Z,100.00
2022-11-05T10:05:50.210Z,100.00
2022-11-05T10:15:50.279Z,100.00
2022-11-05T10:25:50.114Z,100.00
2022-11-05T10:35:50.181Z,100.00
2022-11-05T10:45:50.129Z,100.00
2022-11-05T10:55:50.159Z,100.00
2022-11-05T11:05:50.356Z,100.00
2022-11-05T11:15:50.293Z,100.00
2022-11-05T11:25:50.386Z,100.00
2022-11-05T11:35:50.332Z,100.00
2022-11-05T11:45:50.312Z,100.00
2022-11-05T11:55:50.614Z,100.00
2022-11-05T12:05:50.329Z,100.00
2022-11-05T12:15:50.307Z,100.00
2022-11-05T12:25:50.272Z,100.00
2022-11-05T12:35:56.421Z,100.00
2022-11-05T12:45:50.304Z,100.00
2022-11-05T12:55:50.206Z,99.28
2022-11-05T13:05:50.295Z,97.00
2022-11-05T13:15:51.255Z,96.04
2022-11-05T13:25:50.339Z,93.93
2022-11-05T13:35:50.345Z,92.88
2022-11-05T13:45:50.311Z,90.93
2022-11-05T13:55:50.327Z,88.67
2022-11-05T14:05:50.255Z,87.50
2022-11-05T14:15:50.409Z,85.69
2022-11-05T14:25:50.262Z,85.03
2022-11-05T14:35:50.313Z,86.02
2022-11-05T14:45:50.432Z,87.36
2022-11-05T14:55:50.363Z,89.99
2022-11-05T15:05:50.450Z,91.91
2022-11-05T15:15:50.438Z,94.83
2022-11-05T15:25:53.201Z,97.92
2022-11-05T15:35:50.378Z,100.00
2022-11-05T15:45:50.362Z,100.00
2022-11-05T15:55:50.267Z,100.00
2022-11-05T16:05:50.592Z,100.00
2022-11-05T16:15:50.513Z,100.00
2022-11-05T16:25:50.307Z,100.00
2022-11-05T16:35:50.534Z,100.00
2022-11-05T16:45:50.649Z,100.00
2022-11-05T16:55:50.457Z,100.00
2022-11-05T17:05:50.418Z,100.00
2022-11-05T17:15:50.568Z,100.00
2022-11-05T17:25:50.401Z,100.00
2022-11-05T17:35:50.467Z,100.00
2022-11-05T17:45:50.479Z,100.00
2022-11-05T17:55:50.501Z,100.00
2022-11-05T18:05:50.405Z,100.00
2022-11-05T18:15:50.379Z,100.00
2022-11-05T18:25:50.417Z,100.00
2022-11-05T18:35:50.525Z,100.00
2022-11-05T18:45:50.428Z,100.00
2022-11-05T18:55:50.498Z,100.00
2022-11-05T19:05:50.732Z,100.00
2022-11-05T19:15:50.707Z,100.00
